sensor_id;sensor_type;location;lat;lon;timestamp;pressure;altitude;pressure_sealevel;temperature;humidity
56825;BME280;42705;50.326;18.772;2023-02-20T00:03:40;99082.98;;;0.19;72.34
56825;BME280;42705;50.326;18.772;2023-02-20T00:09:01;99078.55;;;0.18;72.44
56825;BME280;42705;50.326;18.772;2023-02-20T00:14:25;99071.66;;;0.23;72.32
56825;BME280;42705;50.326;18.772;2023-02-20T00:19:46;99070.23;;;0.29;72.18
56825;BME280;42705;50.326;18.772;2023-02-20T00:25:07;99070.99;;;0.31;72.25
56825;BME280;42705;50.326;18.772;2023-02-20T00:30:31;99070.00;;;0.31;72.12
56825;BME280;42705;50.326;18.772;2023-02-20T00:35:53;99075.04;;;0.29;72.28
56825;BME280;42705;50.326;18.772;2023-02-20T00:41:14;99074.84;;;0.34;72.38
56825;BME280;42705;50.326;18.772;2023-02-20T00:46:36;99077.89;;;0.40;72.30
56825;BME280;42705;50.326;18.772;2023-02-20T00:51:57;99075.65;;;0.40;72.42
56825;BME280;42705;50.326;18.772;2023-02-20T00:57:19;99079.77;;;0.36;72.15
56825;BME280;42705;50.326;18.772;2023-02-20T01:02:40;99088.64;;;0.33;71.82
56825;BME280;42705;50.326;18.772;2023-02-20T01:08:02;99087.64;;;0.36;72.19
56825;BME280;42705;50.326;18.772;2023-02-20T01:13:23;99085.06;;;0.41;72.23
56825;BME280;42705;50.326;18.772;2023-02-20T01:18:48;99082.34;;;0.40;72.02
56825;BME280;42705;50.326;18.772;2023-02-20T01:24:09;99072.32;;;0.37;72.22
56825;BME280;42705;50.326;18.772;2023-02-20T01:29:32;99069.83;;;0.40;72.06
56825;BME280;42705;50.326;18.772;2023-02-20T01:34:53;99068.22;;;0.41;72.32
56825;BME280;42705;50.326;18.772;2023-02-20T01:40:18;99061.73;;;0.40;72.17
56825;BME280;42705;50.326;18.772;2023-02-20T01:45:40;99056.41;;;0.40;72.17
56825;BME280;42705;50.326;18.772;2023-02-20T01:51:01;99056.10;;;0.34;72.02
56825;BME280;42705;50.326;18.772;2023-02-20T01:56:24;99047.26;;;0.37;72.15
56825;BME280;42705;50.326;18.772;2023-02-20T02:01:47;99025.34;;;0.39;72.20
56825;BME280;42705;50.326;18.772;2023-02-20T02:07:09;99004.90;;;0.39;72.21
56825;BME280;42705;50.326;18.772;2023-02-20T02:12:31;98997.05;;;0.37;72.27
56825;BME280;42705;50.326;18.772;2023-02-20T02:29:40;98988.90;;;0.43;72.19
56825;BME280;42705;50.326;18.772;2023-02-20T02:40:56;98982.25;;;0.46;72.23
56825;BME280;42705;50.326;18.772;2023-02-20T02:46:40;98969.56;;;0.41;72.14
56825;BME280;42705;50.326;18.772;2023-02-20T02:52:04;98962.77;;;0.35;71.82
56825;BME280;42705;50.326;18.772;2023-02-20T02:57:27;98975.29;;;0.31;72.27
56825;BME280;42705;50.326;18.772;2023-02-20T03:03:18;98979.61;;;0.26;71.94
56825;BME280;42705;50.326;18.772;2023-02-20T03:08:49;98970.89;;;0.21;72.29
56825;BME280;42705;50.326;18.772;2023-02-20T03:14:20;98973.61;;;0.22;72.51
56825;BME280;42705;50.326;18.772;2023-02-20T03:20:06;98966.21;;;0.22;72.35
56825;BME280;42705;50.326;18.772;2023-02-20T03:25:43;98951.11;;;0.22;72.42
56825;BME280;42705;50.326;18.772;2023-02-20T03:31:11;98947.02;;;0.21;72.35
56825;BME280;42705;50.326;18.772;2023-02-20T03:36:44;98942.52;;;0.18;72.41
56825;BME280;42705;50.326;18.772;2023-02-20T03:42:30;98941.84;;;0.13;72.41
56825;BME280;42705;50.326;18.772;2023-02-20T03:48:22;98942.98;;;0.10;72.28
56825;BME280;42705;50.326;18.772;2023-02-20T03:53:46;98953.85;;;0.13;72.32
56825;BME280;42705;50.326;18.772;2023-02-20T03:59:16;98959.25;;;0.16;72.05
56825;BME280;42705;50.326;18.772;2023-02-20T04:04:49;98957.24;;;0.14;72.07
56825;BME280;42705;50.326;18.772;2023-02-20T04:10:16;98932.86;;;0.05;72.04
56825;BME280;42705;50.326;18.772;2023-02-20T04:15:41;98924.27;;;0.01;72.13
56825;BME280;42705;50.326;18.772;2023-02-20T04:21:10;98919.75;;;-0.06;72.00
56825;BME280;42705;50.326;18.772;2023-02-20T04:26:36;98924.55;;;-0.15;72.15
56825;BME280;42705;50.326;18.772;2023-02-20T04:31:57;98925.92;;;-0.19;72.15
56825;BME280;42705;50.326;18.772;2023-02-20T04:37:21;98928.10;;;-0.27;72.29
56825;BME280;42705;50.326;18.772;2023-02-20T04:42:46;98926.54;;;-0.35;72.22
56825;BME280;42705;50.326;18.772;2023-02-20T04:48:08;98911.81;;;-0.36;72.46
56825;BME280;42705;50.326;18.772;2023-02-20T04:53:29;98898.38;;;-0.35;72.67
56825;BME280;42705;50.326;18.772;2023-02-20T04:58:51;98897.96;;;-0.37;72.56
56825;BME280;42705;50.326;18.772;2023-02-20T05:04:15;98889.86;;;-0.36;72.38
56825;BME280;42705;50.326;18.772;2023-02-20T05:09:37;98873.92;;;-0.33;72.32
56825;BME280;42705;50.326;18.772;2023-02-20T05:15:01;98859.30;;;-0.32;72.45
56825;BME280;42705;50.326;18.772;2023-02-20T05:20:22;98859.70;;;-0.30;72.17
56825;BME280;42705;50.326;18.772;2023-02-20T05:26:10;98874.73;;;-0.23;72.18
56825;BME280;42705;50.326;18.772;2023-02-20T05:31:32;98878.36;;;-0.19;72.04
56825;BME280;42705;50.326;18.772;2023-02-20T05:36:53;98886.27;;;-0.20;71.84
56825;BME280;42705;50.326;18.772;2023-02-20T05:42:17;98878.94;;;-0.21;72.15
56825;BME280;42705;50.326;18.772;2023-02-20T05:47:39;98864.01;;;-0.21;71.77
56825;BME280;42705;50.326;18.772;2023-02-20T05:53:00;98864.30;;;-0.24;71.76
56825;BME280;42705;50.326;18.772;2023-02-20T05:58:22;98870.60;;;-0.31;71.82
56825;BME280;42705;50.326;18.772;2023-02-20T06:03:43;98878.59;;;-0.38;71.62
56825;BME280;42705;50.326;18.772;2023-02-20T06:09:06;98881.27;;;-0.36;71.77
56825;BME280;42705;50.326;18.772;2023-02-20T06:14:27;98885.38;;;-0.32;71.85
56825;BME280;42705;50.326;18.772;2023-02-20T06:19:49;98875.83;;;-0.29;71.63
56825;BME280;42705;50.326;18.772;2023-02-20T06:25:10;98873.73;;;-0.23;72.10
56825;BME280;42705;50.326;18.772;2023-02-20T06:30:31;98874.14;;;-0.16;72.00
56825;BME280;42705;50.326;18.772;2023-02-20T06:35:52;98880.55;;;-0.14;71.87
56825;BME280;42705;50.326;18.772;2023-02-20T06:41:14;98880.73;;;-0.14;71.87
56825;BME280;42705;50.326;18.772;2023-02-20T06:46:35;98881.97;;;-0.10;71.85
56825;BME280;42705;50.326;18.772;2023-02-20T06:51:56;98886.82;;;-0.07;72.16
56825;BME280;42705;50.326;18.772;2023-02-20T06:57:18;98880.69;;;-0.04;72.06
56825;BME280;42705;50.326;18.772;2023-02-20T07:02:40;98870.81;;;0.06;72.08
56825;BME280;42705;50.326;18.772;2023-02-20T07:08:01;98872.38;;;0.14;72.01
56825;BME280;42705;50.326;18.772;2023-02-20T07:13:23;98880.45;;;0.19;72.15
56825;BME280;42705;50.326;18.772;2023-02-20T07:18:44;98865.15;;;0.23;72.22
56825;BME280;42705;50.326;18.772;2023-02-20T07:24:06;98852.02;;;0.32;71.85
56825;BME280;42705;50.326;18.772;2023-02-20T07:29:27;98840.35;;;0.45;71.88
56825;BME280;42705;50.326;18.772;2023-02-20T07:34:48;98847.20;;;0.57;71.93
56825;BME280;42705;50.326;18.772;2023-02-20T07:40:11;98830.45;;;0.75;71.99
56825;BME280;42705;50.326;18.772;2023-02-20T07:45:33;98823.91;;;1.02;72.17
56825;BME280;42705;50.326;18.772;2023-02-20T07:50:54;98812.36;;;1.24;72.07
56825;BME280;42705;50.326;18.772;2023-02-20T07:56:16;98795.84;;;1.43;71.85
56825;BME280;42705;50.326;18.772;2023-02-20T08:01:37;98794.64;;;1.61;71.57
56825;BME280;42705;50.326;18.772;2023-02-20T08:06:59;98803.73;;;1.72;71.44
56825;BME280;42705;50.326;18.772;2023-02-20T08:12:20;98802.91;;;1.75;71.41
56825;BME280;42705;50.326;18.772;2023-02-20T08:17:41;98793.13;;;1.78;71.44
56825;BME280;42705;50.326;18.772;2023-02-20T08:23:02;98792.09;;;1.81;70.92
56825;BME280;42705;50.326;18.772;2023-02-20T08:28:25;98787.04;;;1.86;71.12
56825;BME280;42705;50.326;18.772;2023-02-20T08:33:46;98772.73;;;1.93;70.73
56825;BME280;42705;50.326;18.772;2023-02-20T08:39:07;98766.77;;;2.05;70.59
56825;BME280;42705;50.326;18.772;2023-02-20T08:44:29;98767.10;;;2.12;70.78
56825;BME280;42705;50.326;18.772;2023-02-20T08:49:50;98768.63;;;2.16;70.60
56825;BME280;42705;50.326;18.772;2023-02-20T08:55:12;98750.02;;;2.23;70.63
56825;BME280;42705;50.326;18.772;2023-02-20T09:00:33;98732.19;;;2.35;70.61
56825;BME280;42705;50.326;18.772;2023-02-20T09:05:54;98736.58;;;2.40;70.34
56825;BME280;42705;50.326;18.772;2023-02-20T09:11:16;98721.45;;;2.49;70.21
56825;BME280;42705;50.326;18.772;2023-02-20T09:16:37;98706.57;;;2.50;70.50
56825;BME280;42705;50.326;18.772;2023-02-20T09:22:02;98701.45;;;2.49;70.62
56825;BME280;42705;50.326;18.772;2023-02-20T09:27:23;98695.46;;;2.54;70.95
56825;BME280;42705;50.326;18.772;2023-02-20T09:32:45;98692.17;;;2.61;70.81
56825;BME280;42705;50.326;18.772;2023-02-20T09:38:07;98681.77;;;2.65;70.82
56825;BME280;42705;50.326;18.772;2023-02-20T09:43:48;98673.58;;;2.73;71.12
56825;BME280;42705;50.326;18.772;2023-02-20T09:49:18;98660.15;;;2.82;71.25
56825;BME280;42705;50.326;18.772;2023-02-20T09:55:01;98663.95;;;2.91;71.29
56825;BME280;42705;50.326;18.772;2023-02-20T10:00:30;98658.86;;;3.05;71.24
56825;BME280;42705;50.326;18.772;2023-02-20T10:05:53;98666.38;;;3.19;71.22
56825;BME280;42705;50.326;18.772;2023-02-20T10:11:27;98661.84;;;3.29;71.16
56825;BME280;42705;50.326;18.772;2023-02-20T10:22:32;98624.01;;;3.44;71.05
56825;BME280;42705;50.326;18.772;2023-02-20T10:38:52;98594.42;;;3.88;70.91
56825;BME280;42705;50.326;18.772;2023-02-20T10:44:36;98583.71;;;4.03;70.65
56825;BME280;42705;50.326;18.772;2023-02-20T10:55:41;98551.96;;;4.24;70.13
56825;BME280;42705;50.326;18.772;2023-02-20T11:01:10;98536.23;;;4.54;70.18
56825;BME280;42705;50.326;18.772;2023-02-20T11:06:39;98530.02;;;4.75;69.99
56825;BME280;42705;50.326;18.772;2023-02-20T11:12:02;98513.94;;;4.83;69.70
56825;BME280;42705;50.326;18.772;2023-02-20T11:17:26;98497.89;;;4.85;69.65
56825;BME280;42705;50.326;18.772;2023-02-20T11:22:49;98503.58;;;4.83;69.42
56825;BME280;42705;50.326;18.772;2023-02-20T11:28:22;98477.55;;;4.68;69.46
56825;BME280;42705;50.326;18.772;2023-02-20T11:33:45;98450.39;;;4.76;69.56
56825;BME280;42705;50.326;18.772;2023-02-20T11:44:41;98426.86;;;4.81;70.23
56825;BME280;42705;50.326;18.772;2023-02-20T11:50:17;98402.90;;;4.82;70.27
56825;BME280;42705;50.326;18.772;2023-02-20T11:55:39;98390.98;;;4.94;70.54
56825;BME280;42705;50.326;18.772;2023-02-20T12:01:00;98378.98;;;5.03;70.58
56825;BME280;42705;50.326;18.772;2023-02-20T12:11:54;98342.55;;;5.19;70.93
56825;BME280;42705;50.326;18.772;2023-02-20T12:17:32;98338.13;;;5.57;70.75
56825;BME280;42705;50.326;18.772;2023-02-20T12:45:37;98275.65;;;7.17;68.16
56825;BME280;42705;50.326;18.772;2023-02-20T13:02:36;98262.58;;;7.46;66.18
56825;BME280;42705;50.326;18.772;2023-02-20T13:08:08;98257.14;;;7.60;65.59
56825;BME280;42705;50.326;18.772;2023-02-20T13:13:55;98256.42;;;7.88;65.01
56825;BME280;42705;50.326;18.772;2023-02-20T13:31:13;98193.05;;;9.58;59.65
56825;BME280;42705;50.326;18.772;2023-02-20T13:41:57;98162.41;;;8.79;60.91
56825;BME280;42705;50.326;18.772;2023-02-20T13:47:30;98136.73;;;8.39;61.01
56825;BME280;42705;50.326;18.772;2023-02-20T13:52:51;98125.46;;;8.10;62.11
56825;BME280;42705;50.326;18.772;2023-02-20T13:58:16;98100.96;;;7.92;62.92
56825;BME280;42705;50.326;18.772;2023-02-20T14:03:38;98082.19;;;7.86;63.07
56825;BME280;42705;50.326;18.772;2023-02-20T14:09:08;98059.77;;;7.81;63.51
56825;BME280;42705;50.326;18.772;2023-02-20T14:14:31;98057.45;;;7.82;63.79
56825;BME280;42705;50.326;18.772;2023-02-20T14:19:59;98034.69;;;7.92;63.50
56825;BME280;42705;50.326;18.772;2023-02-20T14:25:25;98034.77;;;8.07;63.56
56825;BME280;42705;50.326;18.772;2023-02-20T14:31:06;98022.02;;;8.24;63.33
56825;BME280;42705;50.326;18.772;2023-02-20T14:36:49;98019.72;;;8.42;63.22
56825;BME280;42705;50.326;18.772;2023-02-20T14:42:20;98013.20;;;9.04;62.35
56825;BME280;42705;50.326;18.772;2023-02-20T14:47:56;98010.79;;;9.70;61.43
56825;BME280;42705;50.326;18.772;2023-02-20T14:53:18;98008.42;;;10.24;59.76
56825;BME280;42705;50.326;18.772;2023-02-20T14:58:44;98004.70;;;10.12;59.17
56825;BME280;42705;50.326;18.772;2023-02-20T15:04:16;97998.60;;;9.56;58.99
56825;BME280;42705;50.326;18.772;2023-02-20T15:09:42;97997.55;;;9.04;59.87
56825;BME280;42705;50.326;18.772;2023-02-20T15:15:10;97999.89;;;8.70;60.21
56825;BME280;42705;50.326;18.772;2023-02-20T15:25:53;97993.63;;;8.32;60.85
56825;BME280;42705;50.326;18.772;2023-02-20T15:31:20;97999.96;;;8.23;61.07
56825;BME280;42705;50.326;18.772;2023-02-20T15:36:43;97987.12;;;8.17;61.16
56825;BME280;42705;50.326;18.772;2023-02-20T15:42:09;97988.62;;;8.12;61.33
56825;BME280;42705;50.326;18.772;2023-02-20T15:47:31;97986.49;;;8.08;61.43
56825;BME280;42705;50.326;18.772;2023-02-20T15:52:53;97975.27;;;8.11;61.55
56825;BME280;42705;50.326;18.772;2023-02-20T15:58:25;97973.31;;;8.14;61.41
56825;BME280;42705;50.326;18.772;2023-02-20T16:03:47;97972.93;;;8.14;61.39
56825;BME280;42705;50.326;18.772;2023-02-20T16:09:09;97969.95;;;8.15;61.42
56825;BME280;42705;50.326;18.772;2023-02-20T16:14:30;97982.81;;;8.13;61.48
56825;BME280;42705;50.326;18.772;2023-02-20T16:19:52;97989.35;;;8.11;61.66
56825;BME280;42705;50.326;18.772;2023-02-20T16:25:17;97991.63;;;8.13;61.60
56825;BME280;42705;50.326;18.772;2023-02-20T16:30:40;98000.35;;;8.19;61.60
56825;BME280;42705;50.326;18.772;2023-02-20T16:36:04;98008.40;;;8.24;61.76
56825;BME280;42705;50.326;18.772;2023-02-20T16:41:28;98007.58;;;8.26;61.68
56825;BME280;42705;50.326;18.772;2023-02-20T16:46:51;98015.66;;;8.27;61.55
56825;BME280;42705;50.326;18.772;2023-02-20T16:52:22;98027.30;;;8.29;61.52
56825;BME280;42705;50.326;18.772;2023-02-20T16:57:44;98035.11;;;8.29;61.68
56825;BME280;42705;50.326;18.772;2023-02-20T17:03:07;98040.95;;;8.30;61.88
56825;BME280;42705;50.326;18.772;2023-02-20T17:08:29;98033.64;;;8.34;61.82
56825;BME280;42705;50.326;18.772;2023-02-20T17:13:50;98033.86;;;8.38;61.75
56825;BME280;42705;50.326;18.772;2023-02-20T17:19:11;98025.38;;;8.39;61.24
56825;BME280;42705;50.326;18.772;2023-02-20T17:24:33;98028.15;;;8.39;61.42
56825;BME280;42705;50.326;18.772;2023-02-20T17:29:54;98033.62;;;8.38;61.34
56825;BME280;42705;50.326;18.772;2023-02-20T17:35:17;98030.95;;;8.39;61.41
56825;BME280;42705;50.326;18.772;2023-02-20T17:40:39;98031.83;;;8.39;61.62
56825;BME280;42705;50.326;18.772;2023-02-20T17:46:00;98027.12;;;8.39;61.52
56825;BME280;42705;50.326;18.772;2023-02-20T17:51:22;98032.02;;;8.45;61.90
56825;BME280;42705;50.326;18.772;2023-02-20T17:56:44;98038.51;;;8.50;61.63
56825;BME280;42705;50.326;18.772;2023-02-20T18:02:07;98042.98;;;8.53;61.29
56825;BME280;42705;50.326;18.772;2023-02-20T18:07:29;98047.29;;;8.53;61.29
56825;BME280;42705;50.326;18.772;2023-02-20T18:12:50;98054.52;;;8.52;61.42
56825;BME280;42705;50.326;18.772;2023-02-20T18:18:23;98051.69;;;8.51;61.36
56825;BME280;42705;50.326;18.772;2023-02-20T18:23:45;98049.12;;;8.48;61.31
56825;BME280;42705;50.326;18.772;2023-02-20T18:29:07;98046.59;;;8.43;61.47
56825;BME280;42705;50.326;18.772;2023-02-20T18:34:29;98049.96;;;8.40;61.41
56825;BME280;42705;50.326;18.772;2023-02-20T18:39:51;98041.52;;;8.44;61.91
56825;BME280;42705;50.326;18.772;2023-02-20T18:45:12;98038.99;;;8.43;61.86
56825;BME280;42705;50.326;18.772;2023-02-20T18:50:33;98033.12;;;8.40;61.74
56825;BME280;42705;50.326;18.772;2023-02-20T18:55:55;98034.93;;;8.37;62.06
56825;BME280;42705;50.326;18.772;2023-02-20T19:01:17;98032.40;;;8.36;62.15
56825;BME280;42705;50.326;18.772;2023-02-20T19:06:41;98034.61;;;8.35;62.30
56825;BME280;42705;50.326;18.772;2023-02-20T19:12:05;98039.11;;;8.39;62.30
56825;BME280;42705;50.326;18.772;2023-02-20T19:17:27;98034.50;;;8.46;62.21
56825;BME280;42705;50.326;18.772;2023-02-20T19:22:48;98027.14;;;8.55;62.13
56825;BME280;42705;50.326;18.772;2023-02-20T19:28:10;98033.65;;;8.62;62.52
56825;BME280;42705;50.326;18.772;2023-02-20T19:33:31;98041.64;;;8.70;62.43
56825;BME280;42705;50.326;18.772;2023-02-20T19:38:52;98038.45;;;8.79;62.21
56825;BME280;42705;50.326;18.772;2023-02-20T19:44:14;98027.08;;;8.89;62.12
56825;BME280;42705;50.326;18.772;2023-02-20T19:49:36;98031.55;;;8.99;62.03
56825;BME280;42705;50.326;18.772;2023-02-20T19:54:58;98027.00;;;9.03;61.94
56825;BME280;42705;50.326;18.772;2023-02-20T20:00:21;98033.46;;;9.03;61.70
56825;BME280;42705;50.326;18.772;2023-02-20T20:05:43;98030.31;;;9.02;61.82
56825;BME280;42705;50.326;18.772;2023-02-20T20:11:05;98016.73;;;8.97;61.68
56825;BME280;42705;50.326;18.772;2023-02-20T20:16:26;98029.03;;;8.94;62.10
56825;BME280;42705;50.326;18.772;2023-02-20T20:21:48;98008.88;;;8.94;62.03
56825;BME280;42705;50.326;18.772;2023-02-20T20:27:10;97977.27;;;8.97;61.93
56825;BME280;42705;50.326;18.772;2023-02-20T20:32:32;97970.33;;;8.98;61.79
56825;BME280;42705;50.326;18.772;2023-02-20T20:37:53;97968.39;;;8.96;61.81
56825;BME280;42705;50.326;18.772;2023-02-20T20:43:15;97963.19;;;8.96;62.13
56825;BME280;42705;50.326;18.772;2023-02-20T20:48:36;97958.54;;;8.97;61.87
56825;BME280;42705;50.326;18.772;2023-02-20T20:53:58;97952.48;;;9.01;61.84
56825;BME280;42705;50.326;18.772;2023-02-20T20:59:19;97956.60;;;9.09;61.78
56825;BME280;42705;50.326;18.772;2023-02-20T21:04:41;97958.39;;;9.18;61.56
56825;BME280;42705;50.326;18.772;2023-02-20T21:10:03;97961.88;;;9.25;61.20
56825;BME280;42705;50.326;18.772;2023-02-20T21:15:26;97959.56;;;9.30;60.86
56825;BME280;42705;50.326;18.772;2023-02-20T21:20:48;97957.40;;;9.31;60.88
56825;BME280;42705;50.326;18.772;2023-02-20T21:26:11;97953.11;;;9.28;61.19
56825;BME280;42705;50.326;18.772;2023-02-20T21:31:33;97950.42;;;9.23;60.77
56825;BME280;42705;50.326;18.772;2023-02-20T21:36:54;97948.16;;;9.16;61.36
56825;BME280;42705;50.326;18.772;2023-02-20T21:42:16;97940.27;;;9.11;61.41
56825;BME280;42705;50.326;18.772;2023-02-20T21:47:55;97935.99;;;9.12;61.08
56825;BME280;42705;50.326;18.772;2023-02-20T21:53:17;97933.39;;;9.13;61.39
56825;BME280;42705;50.326;18.772;2023-02-20T21:58:38;97923.86;;;9.13;60.97
56825;BME280;42705;50.326;18.772;2023-02-20T22:04:18;97905.20;;;9.09;61.15
56825;BME280;42705;50.326;18.772;2023-02-20T22:09:41;97904.23;;;9.09;60.84
56825;BME280;42705;50.326;18.772;2023-02-20T22:15:21;97896.11;;;9.08;60.68
56825;BME280;42705;50.326;18.772;2023-02-20T22:21:02;97897.35;;;9.07;60.71
56825;BME280;42705;50.326;18.772;2023-02-20T22:26:42;97889.00;;;9.08;60.63
56825;BME280;42705;50.326;18.772;2023-02-20T22:32:22;97906.43;;;9.09;60.56
56825;BME280;42705;50.326;18.772;2023-02-20T22:38:02;97893.75;;;9.11;60.74
56825;BME280;42705;50.326;18.772;2023-02-20T22:43:42;97886.61;;;9.13;60.70
56825;BME280;42705;50.326;18.772;2023-02-20T22:49:24;97894.80;;;9.12;60.55
56825;BME280;42705;50.326;18.772;2023-02-20T22:55:04;97896.90;;;9.12;60.79
56825;BME280;42705;50.326;18.772;2023-02-20T23:00:44;97899.81;;;9.13;60.81
56825;BME280;42705;50.326;18.772;2023-02-20T23:06:24;97901.27;;;9.10;60.72
56825;BME280;42705;50.326;18.772;2023-02-20T23:12:05;97907.55;;;9.12;60.94
56825;BME280;42705;50.326;18.772;2023-02-20T23:17:45;97909.89;;;9.17;60.76
56825;BME280;42705;50.326;18.772;2023-02-20T23:23:25;97916.51;;;9.19;60.93
56825;BME280;42705;50.326;18.772;2023-02-20T23:29:04;97907.14;;;9.19;60.43
56825;BME280;42705;50.326;18.772;2023-02-20T23:34:44;97908.69;;;9.17;60.75
56825;BME280;42705;50.326;18.772;2023-02-20T23:40:24;97901.93;;;9.15;60.72
56825;BME280;42705;50.326;18.772;2023-02-20T23:46:05;97911.80;;;9.11;60.63
56825;BME280;42705;50.326;18.772;2023-02-20T23:51:45;97914.60;;;9.11;60.45
56825;BME280;42705;50.326;18.772;2023-02-20T23:57:25;97910.47;;;9.11;60.24
